createdAt,value
2022-12-31T00:01:26.522Z,98455.59
2022-12-31T00:03:54.039Z,98471.84
2022-12-31T00:06:28.959Z,98483.41
2022-12-31T00:08:57.199Z,98487.72
2022-12-31T00:11:25.267Z,98475.75
2022-12-31T00:13:52.131Z,98486.44
2022-12-31T00:16:24.788Z,98476.72
2022-12-31T00:18:53.873Z,98480.75
2022-12-31T00:21:21.031Z,98482.00
2022-12-31T00:23:48.141Z,98483.81
2022-12-31T00:26:20.425Z,98480.22
2022-12-31T00:28:47.968Z,98479.66
2022-12-31T00:31:21.145Z,98486.47
2022-12-31T00:33:47.907Z,98482.28
2022-12-31T00:36:17.105Z,98493.25
2022-12-31T00:38:45.623Z,98493.25
2022-12-31T00:41:13.457Z,98502.16
2022-12-31T00:43:40.709Z,98499.53
2022-12-31T00:46:08.313Z,98501.06
2022-12-31T00:48:35.554Z,98505.94
2022-12-31T00:51:05.337Z,98504.25
2022-12-31T00:53:32.004Z,98504.41
2022-12-31T00:56:03.429Z,98515.41
2022-12-31T00:58:30.471Z,98513.19
2022-12-31T01:00:57.609Z,98522.53
2022-12-31T01:03:25.042Z,98516.25
2022-12-31T01:05:51.453Z,98526.41
2022-12-31T01:08:17.988Z,98528.09
2022-12-31T01:10:49.832Z,98498.56
2022-12-31T01:13:16.187Z,98509.03
2022-12-31T01:15:42.623Z,98505.25
2022-12-31T01:18:09.753Z,98515.13
2022-12-31T01:20:42.007Z,98530.56
2022-12-31T01:23:10.278Z,98518.47
2022-12-31T01:25:39.256Z,98547.31
2022-12-31T01:28:06.496Z,98555.25
2022-12-31T01:30:34.374Z,98560.81
2022-12-31T01:33:00.983Z,98533.53
2022-12-31T01:35:27.488Z,98543.25
2022-12-31T01:37:54.044Z,98529.88
2022-12-31T01:40:20.409Z,98544.91
2022-12-31T01:42:54.729Z,98535.28
2022-12-31T01:45:21.700Z,98540.16
2022-12-31T01:47:55.129Z,98541.00
2022-12-31T01:50:29.747Z,98541.59
2022-12-31T01:53:00.886Z,98527.63
2022-12-31T01:55:36.279Z,98542.13
2022-12-31T01:58:11.094Z,98536.66
2022-12-31T02:00:37.749Z,98541.13
2022-12-31T02:03:07.432Z,98544.44
2022-12-31T02:05:49.801Z,98540.34
2022-12-31T02:08:16.457Z,98546.75
2022-12-31T02:10:42.872Z,98565.34
2022-12-31T02:13:09.676Z,98542.03
2022-12-31T02:16:08.675Z,98526.72
2022-12-31T02:19:00.308Z,98516.88
2022-12-31T02:21:56.203Z,98530.25
2022-12-31T02:24:39.715Z,98533.19
2022-12-31T02:27:38.189Z,98540.19
2022-12-31T02:30:07.172Z,98533.06
2022-12-31T02:32:47.537Z,98541.28
2022-12-31T02:35:30.945Z,98536.41
2022-12-31T02:38:04.880Z,98532.56
2022-12-31T02:40:34.461Z,98527.25
2022-12-31T02:43:00.962Z,98546.22
2022-12-31T02:45:34.326Z,98537.69
2022-12-31T02:48:39.679Z,98532.63
2022-12-31T02:51:20.476Z,98518.84
2022-12-31T02:54:07.373Z,98511.00
2022-12-31T02:56:59.279Z,98522.00
2022-12-31T02:59:39.676Z,98504.88
2022-12-31T03:02:14.523Z,98501.84
2022-12-31T03:04:43.985Z,98493.47
2022-12-31T03:07:14.612Z,98502.56
2022-12-31T03:09:40.946Z,98505.69
2022-12-31T03:12:10.070Z,98487.34
2022-12-31T03:14:36.373Z,98485.94
2022-12-31T03:17:02.680Z,98486.91
2022-12-31T03:19:29.147Z,98499.06
2022-12-31T03:21:55.572Z,98501.50
2022-12-31T03:24:23.337Z,98517.72
2022-12-31T03:26:49.977Z,98507.09
2022-12-31T03:29:16.370Z,98506.19
2022-12-31T03:31:42.873Z,98528.41
2022-12-31T03:34:09.271Z,98509.66
2022-12-31T03:36:35.814Z,98502.44
2022-12-31T03:39:02.160Z,98501.25
2022-12-31T03:41:28.580Z,98504.72
2022-12-31T03:43:55.116Z,98529.66
2022-12-31T03:46:21.479Z,98510.47
2022-12-31T03:48:47.985Z,98516.91
2022-12-31T03:51:14.424Z,98508.09
2022-12-31T03:53:40.923Z,98500.31
2022-12-31T03:56:07.410Z,98497.16
2022-12-31T03:58:33.714Z,98504.03
2022-12-31T04:01:00.232Z,98494.84
2022-12-31T04:03:26.704Z,98507.66
2022-12-31T04:05:56.554Z,98512.31
2022-12-31T04:08:23.658Z,98494.66
2022-12-31T04:10:50.509Z,98507.16
2022-12-31T04:13:16.829Z,98509.66
2022-12-31T04:15:43.368Z,98506.13
2022-12-31T04:18:09.797Z,98508.94
2022-12-31T04:20:36.217Z,98521.25
2022-12-31T04:23:02.763Z,98517.97
2022-12-31T04:25:29.405Z,98523.75
2022-12-31T04:27:55.844Z,98510.53
2022-12-31T04:30:22.263Z,98512.66
2022-12-31T04:32:48.618Z,98509.56
2022-12-31T04:35:15.069Z,98522.59
2022-12-31T04:37:41.797Z,98529.56
2022-12-31T04:40:09.025Z,98525.63
2022-12-31T04:42:36.581Z,98513.34
2022-12-31T04:45:03.997Z,98522.72
2022-12-31T04:47:30.502Z,98516.53
2022-12-31T04:49:56.900Z,98519.09
2022-12-31T04:52:23.649Z,98502.41
2022-12-31T04:54:50.100Z,98524.34
2022-12-31T04:57:16.700Z,98512.44
2022-12-31T04:59:43.081Z,98531.53
2022-12-31T05:02:09.842Z,98521.59
2022-12-31T05:04:36.413Z,98525.38
2022-12-31T05:07:02.765Z,98537.94
2022-12-31T05:09:29.422Z,98529.78
2022-12-31T05:11:56.159Z,98535.28
2022-12-31T05:14:22.599Z,98529.19
2022-12-31T05:16:49.163Z,98536.47
2022-12-31T05:19:15.600Z,98531.53
2022-12-31T05:21:42.003Z,98549.34
2022-12-31T05:24:08.645Z,98525.16
2022-12-31T05:26:35.437Z,98534.97
2022-12-31T05:29:01.778Z,98540.28
2022-12-31T05:31:28.232Z,98531.84
2022-12-31T05:33:54.738Z,98534.88
2022-12-31T05:36:21.137Z,98526.09
2022-12-31T05:38:47.457Z,98540.19
2022-12-31T05:41:13.884Z,98528.75
2022-12-31T05:43:40.268Z,98510.22
2022-12-31T05:46:06.853Z,98534.25
2022-12-31T05:48:33.352Z,98527.66
2022-12-31T05:51:00.022Z,98528.38
2022-12-31T05:53:26.465Z,98524.34
2022-12-31T05:55:54.067Z,98531.75
2022-12-31T05:58:20.386Z,98552.97
2022-12-31T06:00:46.836Z,98551.78
2022-12-31T06:03:13.380Z,98559.72
2022-12-31T06:05:41.992Z,98547.47
2022-12-31T06:08:09.166Z,98560.66
2022-12-31T06:10:35.559Z,98565.34
2022-12-31T06:13:01.940Z,98559.22
2022-12-31T06:15:28.414Z,98559.44
2022-12-31T06:17:54.930Z,98559.81
2022-12-31T06:20:21.539Z,98563.22
2022-12-31T06:22:47.977Z,98572.53
2022-12-31T06:25:14.407Z,98562.84
2022-12-31T06:27:40.849Z,98583.34
2022-12-31T06:30:08.059Z,98568.09
2022-12-31T06:32:34.447Z,98561.78
2022-12-31T06:35:00.755Z,98593.56
2022-12-31T06:37:27.142Z,98579.53
2022-12-31T06:39:53.630Z,98579.84
2022-12-31T06:42:20.080Z,98568.34
2022-12-31T06:44:46.494Z,98588.16
2022-12-31T06:47:12.933Z,98585.59
2022-12-31T06:49:39.298Z,98582.19
2022-12-31T06:52:05.807Z,98592.09
2022-12-31T06:54:32.535Z,98582.94
2022-12-31T06:56:59.347Z,98579.38
2022-12-31T06:59:28.302Z,98596.47
2022-12-31T07:02:38.785Z,98584.25
2022-12-31T07:05:36.278Z,98606.38
2022-12-31T07:08:14.683Z,98601.44
2022-12-31T07:10:58.692Z,98610.78
2022-12-31T07:13:47.454Z,98620.72
2022-12-31T07:16:45.647Z,98622.00
2022-12-31T07:19:55.487Z,98627.03
2022-12-31T07:22:24.222Z,98638.53
2022-12-31T07:24:50.992Z,98628.28
2022-12-31T07:27:29.135Z,98618.03
2022-12-31T07:30:04.564Z,98623.28
2022-12-31T07:32:49.655Z,98636.25
2022-12-31T07:35:35.318Z,98622.06
2022-12-31T07:38:23.566Z,98633.00
2022-12-31T07:41:23.864Z,98665.75
2022-12-31T07:44:02.035Z,98658.09
2022-12-31T07:46:38.462Z,98652.13
2022-12-31T07:49:09.978Z,98662.38
2022-12-31T07:51:36.513Z,98649.16
2022-12-31T07:54:04.064Z,98650.38
2022-12-31T07:56:33.065Z,98664.13
2022-12-31T07:59:22.456Z,98664.00
2022-12-31T08:02:03.044Z,98662.13
2022-12-31T08:05:05.874Z,98654.16
2022-12-31T08:07:46.694Z,98657.72
2022-12-31T08:10:39.607Z,98650.41
2022-12-31T08:13:10.846Z,98659.09
2022-12-31T08:15:39.341Z,98655.31
2022-12-31T08:18:06.997Z,98670.81
2022-12-31T08:20:38.447Z,98650.63
2022-12-31T08:23:13.599Z,98671.25
2022-12-31T08:26:17.801Z,98685.59
2022-12-31T08:28:50.690Z,98679.94
2022-12-31T08:31:21.194Z,98684.19
2022-12-31T08:34:06.412Z,98708.56
2022-12-31T08:36:48.350Z,98693.69
2022-12-31T08:39:29.666Z,98695.25
2022-12-31T08:41:58.351Z,98703.22
2022-12-31T08:44:45.815Z,98712.56
2022-12-31T08:47:37.017Z,98704.31
2022-12-31T08:50:05.627Z,98701.47
2022-12-31T08:52:32.263Z,98697.16
2022-12-31T08:54:59.002Z,98703.03
2022-12-31T08:57:46.001Z,98699.56
2022-12-31T09:00:15.719Z,98710.06
2022-12-31T09:03:12.936Z,98702.53
2022-12-31T09:05:55.002Z,98689.97
2022-12-31T09:08:35.455Z,98710.50
2022-12-31T09:11:22.835Z,98711.13
2022-12-31T09:14:24.948Z,98713.38
2022-12-31T09:17:16.772Z,98734.13
2022-12-31T09:19:43.503Z,98740.16
2022-12-31T09:22:10.922Z,98718.47
2022-12-31T09:24:37.745Z,98720.66
2022-12-31T09:27:05.956Z,98741.31
2022-12-31T09:29:53.521Z,98725.88
2022-12-31T09:32:41.763Z,98744.34
2022-12-31T09:35:26.890Z,98731.03
2022-12-31T09:38:07.900Z,98737.44
2022-12-31T09:41:12.315Z,98724.13
2022-12-31T09:44:26.797Z,98755.47
2022-12-31T09:47:28.152Z,98754.19
2022-12-31T09:50:42.848Z,98759.03
2022-12-31T09:53:35.418Z,98768.03
2022-12-31T09:56:31.495Z,98760.72
2022-12-31T09:59:33.209Z,98761.69
2022-12-31T10:02:21.090Z,98753.38
2022-12-31T10:05:00.072Z,98757.63
2022-12-31T10:07:53.804Z,98765.22
2022-12-31T10:10:31.510Z,98765.81
2022-12-31T10:13:12.273Z,98758.31
2022-12-31T10:16:02.147Z,98777.19
2022-12-31T10:18:58.280Z,98774.69
2022-12-31T10:21:55.717Z,98764.81
2022-12-31T10:24:42.757Z,98770.72
2022-12-31T10:27:24.350Z,98753.22
2022-12-31T10:30:17.336Z,98766.06
2022-12-31T10:33:02.557Z,98756.56
2022-12-31T10:35:40.989Z,98758.66
2022-12-31T10:38:22.434Z,98752.44
2022-12-31T10:41:26.449Z,98771.81
2022-12-31T10:44:18.253Z,98756.44
2022-12-31T10:47:14.577Z,98742.25
2022-12-31T10:50:13.500Z,98752.44
2022-12-31T10:53:17.433Z,98745.56
2022-12-31T10:56:21.381Z,98750.97
2022-12-31T10:59:12.861Z,98755.19
2022-12-31T11:01:48.975Z,98760.50
2022-12-31T11:04:42.792Z,98768.44
2022-12-31T11:07:32.516Z,98775.31
2022-12-31T11:10:23.695Z,98788.56
2022-12-31T11:13:11.939Z,98805.84
2022-12-31T11:16:07.193Z,98820.84
2022-12-31T11:19:01.440Z,98802.38
2022-12-31T11:22:04.417Z,98812.28
2022-12-31T11:25:08.673Z,98814.22
2022-12-31T11:28:15.182Z,98824.78
2022-12-31T11:30:55.995Z,98816.31
2022-12-31T11:33:46.808Z,98818.19
2022-12-31T11:36:41.781Z,98802.31
2022-12-31T11:39:30.540Z,98799.28
2022-12-31T11:42:11.811Z,98814.25
2022-12-31T11:45:04.224Z,98810.47
2022-12-31T11:51:00.981Z,98826.38
2022-12-31T11:53:39.646Z,98805.81
2022-12-31T11:56:15.754Z,98803.50
2022-12-31T11:58:52.171Z,98808.47
2022-12-31T12:01:24.648Z,98804.34
2022-12-31T12:03:51.268Z,98797.63
2022-12-31T12:06:23.732Z,98801.97
2022-12-31T12:08:50.401Z,98803.28
2022-12-31T12:11:21.720Z,98805.16
2022-12-31T12:13:48.753Z,98811.25
2022-12-31T12:16:15.858Z,98805.63
2022-12-31T12:18:45.761Z,98801.34
2022-12-31T12:21:22.096Z,98796.56
2022-12-31T12:24:01.784Z,98796.97
2022-12-31T12:26:30.095Z,98790.69
2022-12-31T12:29:08.230Z,98781.63
2022-12-31T12:31:35.066Z,98779.13
2022-12-31T12:34:01.689Z,98776.16
2022-12-31T12:36:28.124Z,98780.09
2022-12-31T12:39:06.113Z,98763.97
2022-12-31T12:41:32.863Z,98766.31
2022-12-31T12:44:08.132Z,98778.41
2022-12-31T12:46:48.063Z,98774.50
2022-12-31T12:49:26.911Z,98763.69
2022-12-31T12:52:21.751Z,98772.00
2022-12-31T12:55:03.506Z,98799.84
2022-12-31T12:57:55.562Z,98789.56
2022-12-31T13:00:33.472Z,98781.34
2022-12-31T13:03:17.158Z,98795.31
2022-12-31T13:05:54.157Z,98787.34
2022-12-31T13:08:52.469Z,98789.06
2022-12-31T13:11:48.180Z,98774.69
2022-12-31T13:14:24.008Z,98773.25
2022-12-31T13:16:57.729Z,98771.63
2022-12-31T13:19:36.407Z,98779.94
2022-12-31T13:22:42.193Z,98800.38
2022-12-31T13:25:29.996Z,98798.88
2022-12-31T13:28:00.297Z,98806.16
2022-12-31T13:30:38.676Z,98820.97
2022-12-31T13:33:20.967Z,98831.47
2022-12-31T13:35:54.162Z,98794.13
2022-12-31T13:38:28.782Z,98810.13
2022-12-31T13:40:57.849Z,98793.81
2022-12-31T13:43:50.805Z,98807.88
2022-12-31T13:46:40.906Z,98803.66
2022-12-31T13:49:37.774Z,98814.94
2022-12-31T13:52:21.531Z,98811.59
2022-12-31T13:55:26.002Z,98799.66
2022-12-31T13:57:53.991Z,98788.81
2022-12-31T14:00:24.193Z,98786.88
2022-12-31T14:03:24.930Z,98806.31
2022-12-31T14:06:11.604Z,98784.16
2022-12-31T14:08:37.973Z,98804.19
2022-12-31T14:11:19.663Z,98779.22
2022-12-31T14:13:58.241Z,98786.59
2022-12-31T14:16:49.285Z,98801.13
2022-12-31T14:19:39.379Z,98786.31
2022-12-31T14:22:36.491Z,98804.84
2022-12-31T14:25:09.200Z,98802.16
2022-12-31T14:27:40.480Z,98834.28
2022-12-31T14:30:16.167Z,98816.91
2022-12-31T14:33:00.852Z,98821.59
2022-12-31T14:35:56.617Z,98808.88
2022-12-31T14:38:44.233Z,98809.84
2022-12-31T14:41:31.179Z,98799.94
2022-12-31T14:44:35.113Z,98809.22
2022-12-31T14:47:20.813Z,98851.09
2022-12-31T14:49:56.991Z,98824.47
2022-12-31T14:52:31.427Z,98814.69
2022-12-31T14:55:21.074Z,98809.63
2022-12-31T14:58:25.709Z,98826.75
2022-12-31T15:00:37.794Z,98847.03
2022-12-31T15:03:17.635Z,98837.22
2022-12-31T15:05:51.652Z,98831.38
2022-12-31T15:08:33.969Z,98840.81
2022-12-31T15:11:38.685Z,98850.78
2022-12-31T15:14:56.780Z,98871.06
2022-12-31T15:17:23.105Z,98854.34
2022-12-31T15:20:16.883Z,98852.97
2022-12-31T15:22:50.053Z,98870.53
2022-12-31T15:25:41.376Z,98864.06
2022-12-31T15:28:23.557Z,98886.72
2022-12-31T15:30:51.738Z,98873.19
2022-12-31T15:33:34.179Z,98886.94
2022-12-31T15:36:13.577Z,98886.41
2022-12-31T15:38:41.751Z,98877.97
2022-12-31T15:41:20.579Z,98887.47
2022-12-31T15:43:51.549Z,98901.53
2022-12-31T15:46:23.384Z,98886.50
2022-12-31T15:48:57.798Z,98906.03
2022-12-31T15:51:33.826Z,98919.53
2022-12-31T15:54:03.069Z,98894.06
2022-12-31T15:56:44.515Z,98892.50
2022-12-31T15:59:14.267Z,98902.00
2022-12-31T16:01:43.439Z,98908.06
2022-12-31T16:04:25.454Z,98906.03
2022-12-31T16:06:52.602Z,98899.31
2022-12-31T16:09:25.366Z,98908.84
2022-12-31T16:11:53.765Z,98898.81
2022-12-31T16:14:26.147Z,98892.28
2022-12-31T16:17:00.253Z,98897.59
2022-12-31T16:19:43.103Z,98895.75
2022-12-31T16:22:18.999Z,98907.97
2022-12-31T16:25:19.483Z,98901.00
2022-12-31T16:27:34.719Z,98898.97
2022-12-31T16:30:07.911Z,98909.81
2022-12-31T16:32:37.127Z,98896.91
2022-12-31T16:35:07.066Z,98885.06
2022-12-31T16:37:38.460Z,98869.72
2022-12-31T16:40:17.827Z,98889.75
2022-12-31T16:42:46.532Z,98877.50
2022-12-31T16:45:34.407Z,98890.44
2022-12-31T16:48:16.377Z,98883.22
2022-12-31T16:50:50.674Z,98878.72
2022-12-31T16:53:20.911Z,98882.16
2022-12-31T16:55:57.044Z,98869.63
2022-12-31T16:58:33.212Z,98896.06
2022-12-31T17:01:16.198Z,98882.91
2022-12-31T17:03:47.687Z,98883.53
2022-12-31T17:06:19.157Z,98883.13
2022-12-31T17:08:54.452Z,98863.94
2022-12-31T17:11:35.643Z,98864.00
2022-12-31T17:14:08.168Z,98887.31
2022-12-31T17:16:37.888Z,98888.31
2022-12-31T17:19:04.776Z,98905.03
2022-12-31T17:21:32.474Z,98889.66
2022-12-31T17:24:05.336Z,98892.88
2022-12-31T17:26:37.721Z,98889.81
2022-12-31T17:29:04.353Z,98884.34
2022-12-31T17:31:41.275Z,98894.00
2022-12-31T17:34:13.805Z,98892.19
2022-12-31T17:36:51.327Z,98889.00
2022-12-31T17:39:20.289Z,98902.13
2022-12-31T17:41:50.836Z,98898.72
2022-12-31T17:44:21.555Z,98917.34
2022-12-31T17:46:49.771Z,98903.97
2022-12-31T17:49:16.473Z,98889.22
2022-12-31T17:51:47.551Z,98876.06
2022-12-31T17:54:17.131Z,98898.94
2022-12-31T17:56:44.677Z,98913.00
2022-12-31T17:59:26.582Z,98899.84
2022-12-31T18:01:53.064Z,98894.31
2022-12-31T18:04:19.748Z,98880.16
2022-12-31T18:06:46.490Z,98890.75
2022-12-31T18:09:12.931Z,98878.53
2022-12-31T18:11:40.502Z,98872.13
2022-12-31T18:14:07.176Z,98889.66
2022-12-31T18:16:34.153Z,98871.22
2022-12-31T18:19:01.445Z,98882.41
2022-12-31T18:21:35.076Z,98901.00
2022-12-31T18:26:28.807Z,98875.25
2022-12-31T18:29:10.702Z,98887.78
2022-12-31T18:31:37.449Z,98889.31
2022-12-31T18:34:03.880Z,98900.59
2022-12-31T18:36:30.515Z,98894.63
2022-12-31T18:38:56.853Z,98901.00
2022-12-31T18:41:26.803Z,98898.50
2022-12-31T18:43:54.014Z,98891.88
2022-12-31T18:46:23.424Z,98896.13
2022-12-31T18:48:50.207Z,98883.28
2022-12-31T18:51:19.462Z,98890.69
2022-12-31T18:53:45.893Z,98903.06
2022-12-31T18:56:14.868Z,98880.56
2022-12-31T18:58:41.463Z,98888.53
2022-12-31T19:01:25.126Z,98893.78
2022-12-31T19:03:51.730Z,98894.00
2022-12-31T19:06:18.065Z,98897.03
2022-12-31T19:08:44.499Z,98893.50
2022-12-31T19:11:14.586Z,98888.44
2022-12-31T19:13:41.441Z,98886.50
2022-12-31T19:16:09.733Z,98898.25
2022-12-31T19:18:36.301Z,98883.22
2022-12-31T19:21:04.514Z,98883.91
2022-12-31T19:23:30.979Z,98889.22
2022-12-31T19:25:57.423Z,98898.78
2022-12-31T19:28:25.972Z,98921.44
2022-12-31T19:30:53.110Z,98897.44
2022-12-31T19:33:19.685Z,98923.19
2022-12-31T19:35:46.236Z,98911.19
2022-12-31T19:38:21.010Z,98917.34
2022-12-31T19:40:48.626Z,98902.66
2022-12-31T19:43:17.495Z,98907.06
2022-12-31T19:45:44.665Z,98895.75
2022-12-31T19:48:12.632Z,98921.72
2022-12-31T19:50:42.868Z,98904.03
2022-12-31T19:53:12.875Z,98898.56
2022-12-31T19:55:39.821Z,98902.59
2022-12-31T19:58:06.714Z,98903.41
2022-12-31T20:00:33.119Z,98893.09
2022-12-31T20:02:59.777Z,98925.16
2022-12-31T20:05:26.296Z,98906.53
2022-12-31T20:07:52.797Z,98899.69
2022-12-31T20:10:19.345Z,98912.00
2022-12-31T20:12:46.133Z,98896.53
2022-12-31T20:15:12.626Z,98900.41
2022-12-31T20:17:39.363Z,98897.06
2022-12-31T20:20:06.311Z,98903.22
2022-12-31T20:22:32.852Z,98911.94
2022-12-31T20:24:59.225Z,98903.50
2022-12-31T20:27:25.713Z,98904.72
2022-12-31T20:29:52.467Z,98906.97
2022-12-31T20:32:19.135Z,98921.09
2022-12-31T20:34:45.570Z,98923.56
2022-12-31T20:37:11.949Z,98912.59
2022-12-31T20:39:38.567Z,98936.56
2022-12-31T20:42:05.176Z,98933.53
2022-12-31T20:44:31.584Z,98930.88
2022-12-31T20:46:58.466Z,98931.25
2022-12-31T20:49:44.878Z,98937.00
2022-12-31T20:52:11.207Z,98925.41
2022-12-31T20:54:38.978Z,98932.50
2022-12-31T20:57:05.283Z,98929.56
2022-12-31T20:59:31.766Z,98929.31
2022-12-31T21:04:44.566Z,98925.00
2022-12-31T21:07:10.951Z,98915.22
2022-12-31T21:09:37.371Z,98930.22
2022-12-31T21:12:03.853Z,98930.16
2022-12-31T21:14:30.335Z,98931.75
2022-12-31T21:16:57.000Z,98928.19
2022-12-31T21:19:23.306Z,98936.78
2022-12-31T21:21:50.053Z,98946.41
2022-12-31T21:24:23.329Z,98948.75
2022-12-31T21:26:50.392Z,98958.34
2022-12-31T21:29:16.915Z,98944.47
2022-12-31T21:31:43.240Z,98942.00
2022-12-31T21:34:09.818Z,98937.75
2022-12-31T21:36:36.257Z,98926.97
2022-12-31T21:39:02.758Z,98931.47
2022-12-31T21:41:33.307Z,98943.06
2022-12-31T21:44:00.873Z,98920.56
2022-12-31T21:46:27.367Z,98952.44
2022-12-31T21:48:55.241Z,98953.03
2022-12-31T21:51:22.085Z,98943.84
2022-12-31T21:53:49.645Z,98952.13
2022-12-31T21:56:16.179Z,98935.59
2022-12-31T21:58:44.865Z,98949.84
2022-12-31T22:01:19.644Z,98950.75
2022-12-31T22:03:46.564Z,98951.22
2022-12-31T22:06:22.341Z,98954.03
2022-12-31T22:08:51.284Z,98960.56
2022-12-31T22:11:19.410Z,98955.25
2022-12-31T22:13:46.559Z,98949.41
2022-12-31T22:16:13.149Z,98968.91
2022-12-31T22:18:41.731Z,98965.81
2022-12-31T22:21:20.038Z,98962.53
2022-12-31T22:23:49.499Z,98954.50
2022-12-31T22:26:17.703Z,98971.81
2022-12-31T22:28:46.157Z,98957.16
2022-12-31T22:31:14.884Z,98960.50
2022-12-31T22:33:42.500Z,98977.72
2022-12-31T22:36:12.983Z,98968.09
2022-12-31T22:38:39.639Z,98974.31
2022-12-31T22:41:11.686Z,98966.69
2022-12-31T22:43:41.544Z,98994.22
2022-12-31T22:46:13.689Z,98974.63
2022-12-31T22:48:41.277Z,98993.13
2022-12-31T22:51:08.792Z,98999.13
2022-12-31T22:53:36.243Z,98988.34
2022-12-31T22:56:02.585Z,99003.72
2022-12-31T22:58:29.009Z,99004.06
2022-12-31T23:00:55.506Z,99015.09
2022-12-31T23:03:22.080Z,99023.63
2022-12-31T23:05:52.523Z,99003.94
2022-12-31T23:08:23.112Z,99031.44
2022-12-31T23:10:53.003Z,99025.56
2022-12-31T23:13:19.382Z,99026.03
2022-12-31T23:15:45.839Z,99035.75
2022-12-31T23:18:12.314Z,99036.78
2022-12-31T23:20:38.893Z,99033.63
2022-12-31T23:23:06.508Z,99040.63
2022-12-31T23:25:35.243Z,99048.19
2022-12-31T23:28:02.193Z,99036.31
2022-12-31T23:30:29.377Z,99036.56
2022-12-31T23:32:56.016Z,99043.13
2022-12-31T23:35:22.715Z,99041.28
2022-12-31T23:37:49.258Z,99036.88
2022-12-31T23:40:21.530Z,99038.09
2022-12-31T23:42:49.839Z,99035.16
2022-12-31T23:45:16.758Z,99020.25
2022-12-31T23:47:43.148Z,99033.31
2022-12-31T23:50:09.572Z,99047.41
2022-12-31T23:52:36.132Z,99034.72
2022-12-31T23:55:02.569Z,99047.44
2022-12-31T23:57:28.962Z,99027.31
2022-12-31T23:59:55.347Z,99032.78
